createdAt,value
2018-07-24T00:00:45.568Z,12.23
2018-07-24T00:03:16.806Z,11.67
2018-07-24T00:05:49.320Z,11.37
2018-07-24T00:08:20.661Z,12.07
2018-07-24T00:10:51.933Z,11.70
2018-07-24T00:13:23.167Z,11.70
2018-07-24T00:15:55.306Z,11.80
2018-07-24T00:18:28.043Z,11.77
2018-07-24T00:20:59.388Z,11.17
2018-07-24T00:23:31.216Z,12.10
2018-07-24T00:26:02.218Z,12.40
2018-07-24T00:28:33.727Z,11.27
2018-07-24T00:31:05.929Z,11.43
2018-07-24T00:33:37.970Z,10.90
2018-07-24T00:36:09.181Z,11.27
2018-07-24T00:38:40.644Z,11.70
2018-07-24T00:41:11.636Z,11.10
2018-07-24T00:43:42.756Z,11.80
2018-07-24T00:46:14.935Z,11.30
2018-07-24T00:48:46.026Z,12.20
2018-07-24T00:51:17.137Z,11.10
2018-07-24T00:53:48.740Z,12.77
2018-07-24T00:56:20.783Z,11.83
2018-07-24T00:58:53.139Z,12.10
2018-07-24T01:01:24.336Z,11.73
2018-07-24T01:03:55.475Z,11.57
2018-07-24T01:06:26.656Z,11.87
2018-07-24T01:08:58.780Z,11.90
2018-07-24T01:11:30.022Z,11.10
2018-07-24T01:14:01.489Z,12.10
2018-07-24T01:16:32.525Z,11.63
2018-07-24T01:19:03.702Z,12.20
2018-07-24T01:21:34.984Z,12.23
2018-07-24T01:24:07.331Z,10.73
2018-07-24T01:26:38.700Z,12.17
2018-07-24T01:29:09.935Z,11.80
2018-07-24T01:31:41.065Z,12.43
2018-07-24T01:34:12.592Z,11.73
2018-07-24T01:36:43.688Z,12.40
2018-07-24T01:39:14.661Z,12.77
2018-07-24T01:41:47.977Z,12.67
2018-07-24T01:44:19.379Z,12.77
2018-07-24T01:46:50.537Z,12.30
2018-07-24T01:49:23.272Z,13.20
2018-07-24T01:51:54.653Z,12.47
2018-07-24T01:54:26.639Z,12.97
2018-07-24T01:56:58.941Z,13.30
2018-07-24T01:59:30.436Z,12.40
2018-07-24T02:02:01.597Z,13.83
2018-07-24T02:04:42.058Z,13.17
2018-07-24T02:07:14.473Z,14.23
2018-07-24T02:09:46.121Z,14.20
2018-07-24T02:12:17.138Z,14.30
2018-07-24T02:14:50.833Z,13.97
2018-07-24T02:17:22.191Z,13.90
2018-07-24T02:19:53.475Z,14.47
2018-07-24T02:22:25.109Z,14.43
2018-07-24T02:24:56.848Z,15.63
2018-07-24T02:27:28.613Z,14.87
2018-07-24T02:29:59.901Z,16.17
2018-07-24T02:32:33.380Z,14.53
2018-07-24T02:35:04.805Z,14.13
2018-07-24T02:37:36.821Z,14.80
2018-07-24T02:40:08.354Z,14.67
2018-07-24T02:42:39.353Z,14.27
2018-07-24T02:45:12.077Z,14.80
2018-07-24T02:47:43.159Z,14.10
2018-07-24T02:50:14.476Z,14.23
2018-07-24T02:52:45.580Z,14.50
2018-07-24T02:55:17.773Z,14.57
2018-07-24T02:57:48.959Z,15.80
2018-07-24T03:00:20.067Z,14.40
2018-07-24T03:02:51.410Z,13.70
2018-07-24T03:05:22.564Z,14.27
2018-07-24T03:07:54.966Z,14.57
2018-07-24T03:10:26.152Z,13.67
2018-07-24T03:12:57.095Z,13.80
2018-07-24T03:15:28.975Z,13.53
2018-07-24T03:18:00.165Z,12.73
2018-07-24T03:20:31.761Z,14.17
2018-07-24T03:23:03.229Z,13.13
2018-07-24T03:25:35.053Z,12.97
2018-07-24T03:28:06.420Z,12.63
2018-07-24T03:30:37.355Z,12.67
2018-07-24T03:33:09.282Z,13.33
2018-07-24T03:35:41.829Z,13.77
2018-07-24T03:38:12.815Z,13.70
2018-07-24T03:40:44.151Z,14.30
2018-07-24T03:43:15.532Z,12.63
2018-07-24T03:45:47.198Z,13.00
2018-07-24T03:48:18.445Z,11.03
2018-07-24T03:50:49.537Z,11.20
2018-07-24T03:54:57.664Z,12.30
2018-07-24T03:57:28.859Z,10.87
2018-07-24T03:59:59.862Z,10.60
2018-07-24T04:02:31.091Z,11.43
2018-07-24T04:05:02.126Z,11.00
2018-07-24T04:07:33.543Z,10.73
2018-07-24T04:10:04.791Z,11.33
2018-07-24T04:12:36.004Z,11.10
2018-07-24T04:15:08.066Z,11.10
2018-07-24T04:17:39.372Z,9.93
2018-07-24T04:20:10.726Z,11.23
2018-07-24T04:22:43.587Z,11.30
2018-07-24T04:25:14.895Z,11.10
2018-07-24T04:27:49.688Z,10.97
2018-07-24T04:30:21.829Z,11.27
2018-07-24T04:32:52.894Z,10.80
2018-07-24T04:35:23.895Z,10.83
2018-07-24T04:37:55.122Z,11.20
2018-07-24T04:40:27.335Z,11.27
2018-07-24T04:42:59.037Z,12.17
2018-07-24T04:45:29.937Z,11.73
2018-07-24T04:48:00.922Z,12.00
2018-07-24T04:50:32.121Z,10.17
2018-07-24T04:53:03.181Z,10.97
2018-07-24T05:27:27.978Z,13.30
2018-07-24T05:30:00.076Z,13.67
2018-07-24T05:32:31.087Z,13.53
2018-07-24T05:35:02.252Z,13.87
2018-07-24T05:37:34.711Z,13.03
2018-07-24T05:40:05.979Z,12.20
2018-07-24T05:42:37.264Z,12.63
2018-07-24T05:45:09.001Z,13.67
2018-07-24T05:47:40.303Z,12.70
2018-07-24T05:50:11.468Z,12.73
2018-07-24T05:52:42.669Z,13.20
2018-07-24T05:55:13.794Z,12.57
2018-07-24T05:57:45.714Z,13.17
2018-07-24T06:00:16.897Z,12.40
2018-07-24T06:02:49.756Z,12.93
2018-07-24T06:05:21.048Z,13.20
2018-07-24T06:07:52.636Z,12.53
2018-07-24T06:10:23.705Z,11.40
2018-07-24T06:15:36.362Z,12.47
2018-07-24T06:18:08.026Z,12.50
2018-07-24T06:20:39.516Z,11.60
2018-07-24T06:23:11.017Z,12.40
2018-07-24T06:25:43.106Z,11.27
2018-07-24T06:28:14.371Z,11.37
2018-07-24T06:30:46.412Z,11.30
2018-07-24T06:33:17.211Z,11.90
2018-07-24T06:35:50.525Z,11.87
2018-07-24T06:38:22.758Z,12.67
2018-07-24T06:40:54.726Z,12.07
2018-07-24T06:43:26.602Z,13.67
2018-07-24T06:45:58.584Z,11.87
2018-07-24T06:48:29.538Z,11.60
2018-07-24T06:51:00.903Z,11.50
2018-07-24T06:53:32.376Z,12.23
2018-07-24T06:56:03.565Z,11.30
2018-07-24T06:58:34.851Z,11.03
2018-07-24T07:01:05.942Z,11.67
2018-07-24T07:03:37.038Z,11.30
2018-07-24T07:06:08.410Z,12.03
2018-07-24T07:08:41.245Z,11.30
2018-07-24T07:11:12.693Z,11.73
2018-07-24T07:13:44.060Z,11.90
2018-07-24T07:16:15.553Z,11.27
2018-07-24T07:18:46.958Z,10.80
2018-07-24T07:21:18.080Z,10.50
2018-07-24T07:23:49.349Z,10.40
2018-07-24T07:26:20.699Z,9.87
2018-07-24T07:28:52.126Z,9.37
2018-07-24T07:31:24.024Z,9.60
2018-07-24T07:33:55.995Z,9.90
2018-07-24T07:36:28.517Z,9.27
2018-07-24T07:38:59.880Z,9.60
2018-07-24T07:41:31.104Z,10.13
2018-07-24T07:44:02.610Z,10.27
2018-07-24T07:46:34.373Z,10.03
2018-07-24T07:49:05.969Z,9.43
2018-07-24T07:51:37.355Z,9.90
2018-07-24T07:54:09.758Z,10.60
2018-07-24T07:56:41.058Z,10.80
2018-07-24T07:59:12.747Z,9.00
2018-07-24T08:01:44.131Z,10.87
2018-07-24T08:04:15.569Z,9.90
2018-07-24T08:06:46.515Z,9.40
2018-07-24T08:09:17.777Z,9.27
2018-07-24T08:11:48.941Z,10.50
2018-07-24T08:14:20.019Z,10.10
2018-07-24T08:16:53.281Z,10.60
2018-07-24T08:19:24.700Z,11.00
2018-07-24T08:21:57.258Z,10.37
2018-07-24T08:24:28.550Z,11.03
2018-07-24T08:27:00.413Z,10.53
2018-07-24T08:29:32.806Z,10.27
2018-07-24T08:32:04.316Z,11.17
2018-07-24T08:34:36.474Z,9.80
2018-07-24T08:37:08.283Z,10.07
2018-07-24T08:39:39.695Z,9.30
2018-07-24T08:42:10.922Z,10.07
2018-07-24T08:44:41.984Z,8.33
2018-07-24T08:47:13.131Z,10.50
2018-07-24T08:49:45.474Z,8.90
2018-07-24T08:52:16.602Z,9.20
2018-07-24T08:54:48.122Z,8.67
2018-07-24T08:57:19.665Z,9.10
2018-07-24T08:59:50.464Z,9.10
2018-07-24T09:02:21.335Z,9.30
2018-07-24T09:04:52.657Z,9.60
2018-07-24T09:07:23.958Z,9.33
2018-07-24T09:09:54.985Z,9.67
2018-07-24T09:12:28.179Z,10.40
2018-07-24T09:14:59.345Z,9.47
2018-07-24T09:17:30.433Z,9.00
2018-07-24T09:20:01.788Z,8.87
2018-07-24T09:22:33.176Z,9.40
2018-07-24T09:25:04.627Z,9.43
2018-07-24T09:27:36.308Z,8.83
2018-07-24T09:30:07.340Z,9.07
2018-07-24T09:32:38.648Z,8.60
2018-07-24T09:35:09.745Z,8.83
2018-07-24T09:37:40.941Z,9.37
2018-07-24T09:40:12.455Z,9.27
2018-07-24T09:42:44.274Z,9.43
2018-07-24T09:45:15.367Z,8.23
2018-07-24T09:47:46.640Z,8.80
2018-07-24T09:50:17.840Z,8.13
2018-07-24T09:52:50.412Z,9.17
2018-07-24T09:55:21.555Z,8.40
2018-07-24T09:57:54.915Z,8.00
2018-07-24T10:00:32.746Z,8.67
2018-07-24T10:03:05.438Z,8.93
2018-07-24T10:05:36.642Z,9.67
2018-07-24T10:08:08.250Z,8.50
2018-07-24T10:10:39.648Z,8.67
2018-07-24T10:13:10.791Z,8.23
2018-07-24T10:15:42.883Z,8.87
2018-07-24T10:18:14.037Z,8.97
2018-07-24T10:20:45.916Z,8.47
2018-07-24T10:23:17.077Z,8.60
2018-07-24T10:25:47.777Z,8.57
2018-07-24T10:28:18.887Z,8.50
2018-07-24T10:30:51.344Z,8.67
2018-07-24T10:33:22.616Z,8.70
2018-07-24T10:35:53.704Z,7.70
2018-07-24T10:38:25.760Z,8.20
2018-07-24T10:40:56.869Z,7.63
2018-07-24T10:43:28.213Z,8.70
2018-07-24T10:46:01.515Z,9.23
2018-07-24T10:48:33.576Z,7.93
2018-07-24T10:51:05.468Z,8.40
2018-07-24T10:53:36.630Z,8.73
2018-07-24T10:56:07.808Z,8.70
2018-07-24T10:58:39.253Z,8.33
2018-07-24T11:01:10.795Z,9.13
2018-07-24T11:03:42.153Z,9.03
2018-07-24T11:06:13.184Z,9.20
2018-07-24T11:08:45.907Z,9.27
2018-07-24T11:11:17.536Z,8.43
2018-07-24T11:13:48.945Z,8.43
2018-07-24T11:16:20.457Z,9.73
2018-07-24T11:18:51.904Z,8.57
2018-07-24T11:21:23.292Z,8.47
2018-07-24T11:23:54.446Z,8.53
2018-07-24T11:26:27.357Z,9.33
2018-07-24T11:28:59.424Z,8.90
2018-07-24T11:31:30.931Z,8.70
2018-07-24T11:34:03.016Z,9.50
2018-07-24T11:36:35.172Z,10.00
2018-07-24T11:39:10.807Z,10.80
2018-07-24T11:41:43.013Z,9.50
2018-07-24T11:44:14.062Z,9.93
2018-07-24T11:46:45.237Z,9.73
2018-07-24T11:49:17.612Z,10.23
2018-07-24T11:51:49.899Z,9.50
2018-07-24T11:54:21.220Z,8.60
2018-07-24T11:56:52.823Z,9.40
2018-07-24T11:59:24.103Z,9.90
2018-07-24T12:01:56.221Z,10.10
2018-07-24T12:04:27.665Z,9.17
2018-07-24T12:07:01.120Z,9.30
2018-07-24T12:09:33.875Z,9.37
2018-07-24T12:12:05.144Z,10.00
2018-07-24T12:14:37.562Z,9.90
2018-07-24T12:17:09.441Z,9.47
2018-07-24T12:19:40.703Z,9.97
2018-07-24T12:22:12.205Z,10.03
2018-07-24T12:24:43.611Z,9.70
2018-07-24T12:27:14.972Z,11.77
2018-07-24T12:29:46.704Z,9.80
2018-07-24T12:32:18.265Z,11.20
2018-07-24T12:34:50.371Z,9.90
2018-07-24T12:37:21.713Z,9.17
2018-07-24T12:39:53.799Z,9.17
2018-07-24T12:42:25.326Z,10.10
2018-07-24T12:44:56.894Z,9.77
2018-07-24T12:47:33.000Z,9.60
2018-07-24T12:50:06.333Z,9.50
2018-07-24T12:52:38.802Z,8.47
2018-07-24T12:55:10.346Z,10.03
2018-07-24T12:57:43.043Z,8.40
2018-07-24T13:00:15.966Z,10.37
2018-07-24T13:02:47.791Z,8.40
2018-07-24T13:05:20.870Z,6.90
2018-07-24T13:07:52.572Z,6.60
2018-07-24T13:10:24.518Z,7.20
2018-07-24T13:12:56.048Z,7.43
2018-07-24T13:15:28.511Z,5.90
2018-07-24T13:17:59.918Z,6.00
2018-07-24T13:20:31.834Z,6.43
2018-07-24T13:23:03.019Z,5.17
2018-07-24T13:25:34.354Z,5.23
2018-07-24T13:28:05.744Z,5.53
2018-07-24T13:30:37.200Z,5.80
2018-07-24T13:33:09.569Z,6.10
2018-07-24T13:35:40.844Z,6.30
2018-07-24T13:38:12.116Z,6.40
2018-07-24T13:40:43.513Z,6.50
2018-07-24T13:43:15.777Z,6.97
2018-07-24T13:45:46.950Z,9.17
2018-07-24T13:48:19.645Z,8.20
2018-07-24T13:50:51.180Z,8.77
2018-07-24T13:53:22.634Z,12.23
2018-07-24T13:55:54.174Z,14.27
2018-07-24T13:58:26.021Z,10.10
2018-07-24T14:00:58.453Z,9.40
2018-07-24T14:03:30.827Z,9.00
2018-07-24T14:06:04.343Z,11.70
2018-07-24T14:08:36.720Z,10.20
2018-07-24T14:11:08.248Z,9.20
2018-07-24T14:13:39.804Z,7.60
2018-07-24T14:16:11.321Z,7.60
2018-07-24T14:18:42.967Z,7.87
2018-07-24T14:21:15.233Z,7.30
2018-07-24T14:23:47.080Z,7.67
2018-07-24T14:28:56.204Z,7.73
2018-07-24T14:31:27.562Z,7.27
2018-07-24T14:33:58.512Z,6.77
2018-07-24T14:36:31.315Z,6.80
2018-07-24T14:39:02.601Z,6.87
2018-07-24T14:41:33.673Z,7.50
2018-07-24T14:44:05.680Z,6.83
2018-07-24T14:46:39.281Z,7.10
2018-07-24T14:49:12.730Z,7.27
2018-07-24T14:51:43.964Z,8.13
2018-07-24T14:54:15.064Z,7.30
2018-07-24T14:56:46.449Z,7.90
2018-07-24T14:59:17.462Z,7.97
2018-07-24T15:01:48.539Z,7.03
2018-07-24T15:04:20.097Z,7.33
2018-07-24T15:06:51.474Z,7.30
2018-07-24T15:09:27.940Z,8.10
2018-07-24T15:11:59.623Z,7.73
2018-07-24T15:14:30.646Z,8.10
2018-07-24T15:17:01.769Z,8.13
2018-07-24T15:19:33.102Z,9.10
2018-07-24T15:22:05.280Z,8.67
2018-07-24T15:24:36.633Z,8.03
2018-07-24T15:27:08.800Z,7.60
2018-07-24T15:29:39.949Z,8.60
2018-07-24T15:32:11.220Z,8.33
2018-07-24T15:34:42.367Z,9.20
2018-07-24T15:37:15.075Z,7.70
2018-07-24T15:39:46.130Z,9.57
2018-07-24T15:42:18.461Z,8.90
2018-07-24T15:44:50.753Z,8.93
2018-07-24T15:47:21.953Z,8.00
2018-07-24T15:49:53.677Z,8.83
2018-07-24T15:52:25.268Z,8.20
2018-07-24T15:54:56.546Z,8.80
2018-07-24T15:57:27.602Z,8.80
2018-07-24T15:59:59.670Z,8.30
2018-07-24T16:02:31.294Z,8.63
2018-07-24T16:05:02.669Z,8.10
2018-07-24T16:07:34.066Z,8.83
2018-07-24T16:10:05.711Z,8.57
2018-07-24T16:12:37.578Z,8.60
2018-07-24T16:15:09.976Z,9.17
2018-07-24T16:17:42.644Z,8.23
2018-07-24T16:20:14.324Z,7.43
2018-07-24T16:22:45.675Z,8.07
2018-07-24T16:25:17.069Z,8.20
2018-07-24T16:27:48.622Z,9.50
2018-07-24T16:30:21.810Z,9.77
2018-07-24T16:32:54.293Z,8.53
2018-07-24T16:35:26.225Z,9.60
2018-07-24T16:37:59.209Z,8.50
2018-07-24T16:40:31.512Z,9.00
2018-07-24T16:43:02.633Z,9.00
2018-07-24T16:45:34.501Z,9.80
2018-07-24T16:48:05.846Z,8.10
2018-07-24T16:50:37.468Z,8.53
2018-07-24T16:53:08.669Z,8.30
2018-07-24T16:55:40.848Z,8.87
2018-07-24T16:58:12.645Z,8.43
2018-07-24T17:00:43.857Z,8.60
2018-07-24T17:03:16.833Z,8.13
2018-07-24T17:05:51.524Z,9.10
2018-07-24T17:08:24.183Z,8.00
2018-07-24T17:10:57.112Z,8.17
2018-07-24T17:13:29.683Z,8.20
2018-07-24T17:16:01.341Z,8.97
2018-07-24T17:18:32.894Z,8.30
2018-07-24T17:21:04.304Z,8.87
2018-07-24T17:23:36.421Z,8.43
2018-07-24T17:26:08.364Z,9.27
2018-07-24T17:28:41.733Z,9.83
2018-07-24T17:31:13.431Z,9.47
2018-07-24T17:33:46.044Z,9.80
2018-07-24T17:36:17.319Z,9.30
2018-07-24T17:38:48.462Z,9.57
2018-07-24T17:41:20.145Z,9.50
2018-07-24T17:43:54.417Z,9.87
2018-07-24T17:46:26.291Z,10.20
2018-07-24T17:48:57.470Z,10.87
2018-07-24T17:51:29.836Z,11.27
2018-07-24T17:54:01.678Z,10.97
2018-07-24T17:56:34.349Z,9.90
2018-07-24T17:59:07.450Z,10.57
2018-07-24T18:01:38.584Z,10.97
2018-07-24T18:04:09.705Z,10.30
2018-07-24T18:06:41.321Z,12.10
2018-07-24T18:09:14.220Z,11.37
2018-07-24T18:11:45.901Z,11.13
2018-07-24T18:14:18.430Z,10.80
2018-07-24T18:16:50.996Z,11.83
2018-07-24T18:19:24.170Z,11.77
2018-07-24T18:21:56.248Z,10.30
2018-07-24T18:24:29.972Z,11.03
2018-07-24T18:27:01.053Z,10.37
2018-07-24T18:29:33.839Z,10.40
2018-07-24T18:32:05.160Z,9.93
2018-07-24T18:34:37.995Z,10.70
2018-07-24T18:37:09.505Z,10.53
2018-07-24T18:39:40.917Z,9.80
2018-07-24T18:42:12.141Z,10.80
2018-07-24T18:44:43.476Z,11.20
2018-07-24T18:47:15.026Z,11.20
2018-07-24T18:49:45.780Z,11.43
2018-07-24T18:52:16.678Z,11.47
2018-07-24T18:54:47.494Z,10.87
2018-07-24T18:57:18.335Z,10.10
2018-07-24T18:59:49.366Z,10.47
2018-07-24T19:02:20.819Z,10.90
2018-07-24T19:04:53.011Z,11.70
2018-07-24T19:07:25.186Z,10.20
2018-07-24T19:09:56.129Z,10.70
2018-07-24T19:12:27.979Z,11.27
2018-07-24T19:15:01.670Z,11.00
2018-07-24T19:17:32.438Z,11.00
2018-07-24T19:20:03.155Z,10.47
2018-07-24T19:22:37.669Z,11.23
2018-07-24T19:25:08.545Z,10.07
2018-07-24T19:27:39.316Z,10.60
2018-07-24T19:30:12.166Z,10.13
2018-07-24T19:32:44.046Z,10.17
2018-07-24T19:35:17.988Z,9.77
2018-07-24T19:37:50.047Z,9.87
2018-07-24T19:40:22.491Z,10.03
2018-07-24T19:42:53.726Z,10.03
2018-07-24T19:45:25.102Z,10.13
2018-07-24T19:47:57.750Z,10.90
2018-07-24T19:50:29.008Z,10.00
2018-07-24T19:53:01.953Z,9.63
2018-07-24T19:55:33.422Z,9.73
2018-07-24T19:58:05.662Z,9.70
2018-07-24T20:00:37.318Z,10.00
2018-07-24T20:03:08.742Z,9.00
2018-07-24T20:05:40.035Z,9.30
2018-07-24T20:08:11.383Z,9.53
2018-07-24T20:10:42.452Z,10.67
2018-07-24T20:13:14.892Z,9.73
2018-07-24T20:15:46.504Z,10.10
2018-07-24T20:18:18.774Z,11.07
2018-07-24T20:20:50.262Z,10.40
2018-07-24T20:23:21.859Z,10.23
2018-07-24T20:25:52.889Z,10.07
2018-07-24T20:28:24.120Z,9.57
2018-07-24T20:30:56.417Z,10.77
2018-07-24T20:33:27.511Z,9.77
2018-07-24T20:35:58.838Z,9.30
2018-07-24T20:38:31.676Z,10.07
2018-07-24T20:41:05.890Z,8.83
2018-07-24T20:43:38.489Z,10.27
2018-07-24T20:46:10.855Z,9.60
2018-07-24T20:48:43.398Z,10.83
2018-07-24T20:51:15.284Z,10.40
2018-07-24T20:53:48.391Z,9.77
2018-07-24T20:56:22.273Z,8.63
2018-07-24T20:58:54.240Z,10.70
2018-07-24T21:01:27.727Z,9.90
2018-07-24T21:03:59.943Z,9.93
2018-07-24T21:06:35.829Z,8.93
2018-07-24T21:09:13.474Z,9.73
2018-07-24T21:11:47.510Z,7.73
2018-07-24T21:14:23.335Z,9.63
2018-07-24T21:16:58.057Z,9.97
2018-07-24T21:19:30.983Z,10.63
2018-07-24T21:22:03.712Z,9.47
2018-07-24T21:24:36.156Z,9.33
2018-07-24T21:27:09.246Z,9.63
2018-07-24T21:29:46.035Z,9.00
2018-07-24T21:32:19.627Z,9.10
2018-07-24T21:34:53.557Z,10.90
2018-07-24T21:37:27.390Z,9.33
2018-07-24T21:40:02.324Z,9.10
2018-07-24T21:42:39.197Z,10.33
2018-07-24T21:45:11.562Z,10.03
2018-07-24T21:47:43.995Z,9.70
2018-07-24T21:50:18.195Z,10.00
2018-07-24T21:52:49.567Z,9.83
2018-07-24T21:55:21.180Z,9.83
2018-07-24T21:57:53.357Z,10.30
2018-07-24T22:00:27.669Z,9.97
2018-07-24T22:02:59.819Z,9.33
2018-07-24T22:05:32.409Z,10.10
2018-07-24T22:08:04.398Z,10.47
2018-07-24T22:10:36.910Z,9.90
2018-07-24T22:13:18.100Z,9.60
2018-07-24T22:16:04.326Z,11.00
2018-07-24T22:18:47.272Z,10.87
2018-07-24T22:21:35.645Z,11.97
2018-07-24T22:24:08.809Z,11.60
2018-07-24T22:26:40.621Z,11.07
2018-07-24T22:29:12.417Z,11.17
2018-07-24T22:31:43.981Z,11.10
2018-07-24T22:34:15.216Z,11.23
2018-07-24T22:36:48.549Z,11.80
2018-07-24T22:42:33.440Z,10.70
2018-07-24T22:48:07.619Z,12.40
2018-07-24T22:50:39.721Z,11.17
2018-07-24T22:53:12.733Z,12.30
2018-07-24T22:55:44.807Z,11.63
2018-07-24T22:58:16.854Z,10.80
2018-07-24T23:00:50.155Z,11.10
2018-07-24T23:06:10.116Z,11.97
2018-07-24T23:08:42.019Z,11.30
2018-07-24T23:11:15.989Z,12.67
2018-07-24T23:13:48.599Z,11.50
2018-07-24T23:16:20.351Z,11.50
2018-07-24T23:18:52.797Z,11.00
2018-07-24T23:21:24.398Z,11.63
2018-07-24T23:23:56.264Z,10.90
2018-07-24T23:26:27.937Z,11.10
2018-07-24T23:28:59.172Z,11.60
2018-07-24T23:31:30.603Z,10.40
2018-07-24T23:34:01.918Z,10.63
2018-07-24T23:36:33.353Z,10.27
2018-07-24T23:39:05.069Z,12.00
2018-07-24T23:41:36.331Z,10.27
2018-07-24T23:44:07.436Z,11.60
2018-07-24T23:46:38.998Z,10.40
2018-07-24T23:49:10.140Z,9.87
2018-07-24T23:51:42.845Z,11.00
2018-07-24T23:54:13.941Z,9.73
2018-07-24T23:56:44.928Z,10.77
2018-07-24T23:59:15.938Z,10.70
